Fraga, Spain
Current Conditions -  °F | °C
As of 12:30 PM on Thursday 27 Nov 2014 (Local Time) from LERS Reporting Station
Scattered Clouds Scattered Clouds  
Wind Chill: 59°   Ceiling: Unl
Heat Index: 59°   Visibility: 6mi
Dew Point: 57°   Wind: 7mph
Humidity: 94%   Direction: 30°NNE
Pressure: 29.71"   Gusts: NA
Location:  41.52°N, 0.35°E
Report Text: LERS 271130Z 03006KT 9999 FEW025TCU SCT031 15/14 Q1006
Loading
Personal Weather Stations






























Interactive Weather Map New forecast layout! Learn more

10-Day Weather Forecast

Advertisements
Track Severe Weather on mobile